createdAt,value
2019-03-24T00:02:10.383Z,43.65
2019-03-24T00:04:37.458Z,43.85
2019-03-24T00:07:04.579Z,41.58
2019-03-24T00:09:31.546Z,40.80
2019-03-24T00:11:58.539Z,39.23
2019-03-24T00:14:25.414Z,37.90
2019-03-24T00:16:52.227Z,37.55
2019-03-24T00:19:19.043Z,37.90
2019-03-24T00:21:46.168Z,39.38
2019-03-24T00:24:13.152Z,40.40
2019-03-24T00:26:40.206Z,38.73
2019-03-24T00:29:07.087Z,39.80
2019-03-24T00:31:34.107Z,41.20
2019-03-24T00:34:01.033Z,44.25
2019-03-24T00:36:27.909Z,48.00
2019-03-24T00:38:54.787Z,43.52
2019-03-24T00:41:21.609Z,43.90
2019-03-24T00:43:48.511Z,46.33
2019-03-24T00:46:15.374Z,45.63
2019-03-24T00:48:42.303Z,47.83
2019-03-24T00:51:09.240Z,50.03
2019-03-24T00:53:36.117Z,51.48
2019-03-24T00:56:03.024Z,52.90
2019-03-24T00:58:30.335Z,52.33
2019-03-24T01:00:57.236Z,52.60
2019-03-24T01:03:24.037Z,50.65
2019-03-24T01:05:50.867Z,51.40
2019-03-24T01:08:17.687Z,51.30
2019-03-24T01:10:44.609Z,53.60
2019-03-24T01:13:12.207Z,54.85
2019-03-24T01:15:47.345Z,51.95
2019-03-24T01:18:08.175Z,52.33
2019-03-24T01:20:34.920Z,51.25
2019-03-24T01:23:01.757Z,49.27
2019-03-24T01:25:29.440Z,50.67
2019-03-24T01:27:56.297Z,52.08
2019-03-24T01:30:23.485Z,52.75
2019-03-24T01:32:50.433Z,53.05
2019-03-24T01:35:17.359Z,52.40
2019-03-24T01:37:44.275Z,53.50
2019-03-24T01:40:11.157Z,54.08
2019-03-24T01:42:38.087Z,54.75
2019-03-24T01:45:08.093Z,55.23
2019-03-24T01:47:35.064Z,54.47
2019-03-24T01:50:04.051Z,54.77
2019-03-24T01:52:30.870Z,59.05
2019-03-24T01:54:57.743Z,59.70
2019-03-24T01:57:24.871Z,60.67
2019-03-24T01:59:51.759Z,62.98
2019-03-24T02:02:18.991Z,61.85
2019-03-24T02:04:46.013Z,63.38
2019-03-24T02:07:12.877Z,64.65
2019-03-24T02:09:39.773Z,64.37
2019-03-24T02:12:06.669Z,66.40
2019-03-24T02:14:33.653Z,66.07
2019-03-24T02:17:00.653Z,66.95
2019-03-24T02:19:27.495Z,68.67
2019-03-24T02:21:54.467Z,66.07
2019-03-24T02:24:21.314Z,70.05
2019-03-24T02:26:48.388Z,69.00
2019-03-24T02:29:15.345Z,71.45
2019-03-24T02:31:42.298Z,67.67
2019-03-24T02:34:09.200Z,72.55
2019-03-24T02:36:36.230Z,71.57
2019-03-24T02:39:06.352Z,76.15
2019-03-24T02:44:00.027Z,73.17
2019-03-24T02:46:26.959Z,72.97
2019-03-24T02:48:53.895Z,77.22
2019-03-24T02:51:20.812Z,79.95
2019-03-24T02:53:47.703Z,80.77
2019-03-24T02:56:14.583Z,77.12
2019-03-24T02:58:41.494Z,75.12
2019-03-24T03:01:08.837Z,75.67
2019-03-24T03:03:35.727Z,71.87
2019-03-24T03:06:02.672Z,71.95
2019-03-24T03:08:29.666Z,68.65
2019-03-24T03:10:56.556Z,67.17
2019-03-24T03:13:23.514Z,64.60
2019-03-24T03:15:50.369Z,65.55
2019-03-24T03:18:19.061Z,68.55
2019-03-24T03:20:45.821Z,81.08
2019-03-24T03:23:12.711Z,80.65
2019-03-24T03:25:41.930Z,81.72
2019-03-24T03:28:09.046Z,76.77
2019-03-24T03:30:35.920Z,75.75
2019-03-24T03:33:02.960Z,73.12
2019-03-24T03:35:29.938Z,75.22
2019-03-24T03:37:58.281Z,79.30
2019-03-24T03:40:25.365Z,82.85
2019-03-24T03:42:52.196Z,90.10
2019-03-24T03:45:26.786Z,93.20
2019-03-24T03:47:54.415Z,89.87
2019-03-24T03:50:21.451Z,93.12
2019-03-24T03:52:48.445Z,90.77
2019-03-24T03:55:15.552Z,89.20
2019-03-24T03:57:42.646Z,89.40
2019-03-24T04:00:09.535Z,86.02
2019-03-24T04:02:36.633Z,89.75
2019-03-24T04:05:04.954Z,89.95
2019-03-24T04:07:31.793Z,91.10
2019-03-24T04:09:58.632Z,92.00
2019-03-24T04:12:25.710Z,87.10
2019-03-24T04:14:52.578Z,89.47
2019-03-24T04:17:19.495Z,87.75
2019-03-24T04:19:46.388Z,85.28
2019-03-24T04:22:13.237Z,86.55
2019-03-24T04:24:40.197Z,84.07
2019-03-24T04:27:07.024Z,86.82
2019-03-24T04:29:34.228Z,83.42
2019-03-24T04:32:01.026Z,83.67
2019-03-24T04:34:28.260Z,86.25
2019-03-24T04:36:55.063Z,86.42
2019-03-24T04:39:21.962Z,85.28
2019-03-24T04:41:49.179Z,83.90
2019-03-24T04:44:16.084Z,81.72
2019-03-24T04:46:42.982Z,76.62
2019-03-24T04:49:09.930Z,68.87
2019-03-24T04:51:36.753Z,58.63
2019-03-24T04:54:03.638Z,56.30
2019-03-24T04:56:30.743Z,49.83
2019-03-24T04:58:57.470Z,47.10
2019-03-24T05:01:24.396Z,41.73
2019-03-24T05:03:51.282Z,37.93
2019-03-24T05:06:18.136Z,36.40
2019-03-24T05:08:45.466Z,35.78
2019-03-24T05:11:12.483Z,35.40
2019-03-24T05:13:39.320Z,33.13
2019-03-24T05:16:06.179Z,31.85
2019-03-24T05:18:33.058Z,31.73
2019-03-24T05:21:00.034Z,29.98
2019-03-24T05:23:26.933Z,29.92
2019-03-24T05:25:53.794Z,30.30
2019-03-24T05:28:20.649Z,30.12
2019-03-24T05:30:47.788Z,28.98
2019-03-24T05:33:14.754Z,30.12
2019-03-24T05:35:41.649Z,28.65
2019-03-24T05:38:08.491Z,27.65
2019-03-24T05:40:35.674Z,29.75
2019-03-24T05:43:02.646Z,29.35
2019-03-24T05:45:29.657Z,28.85
2019-03-24T05:47:56.496Z,28.40
2019-03-24T05:50:24.754Z,28.85
2019-03-24T05:52:51.701Z,28.07
2019-03-24T05:55:18.672Z,28.35
2019-03-24T05:57:45.561Z,27.98
2019-03-24T06:00:12.412Z,27.05
2019-03-24T06:02:39.617Z,26.30
2019-03-24T06:05:06.622Z,27.55
2019-03-24T06:07:33.512Z,27.25
2019-03-24T06:10:00.982Z,26.48
2019-03-24T06:12:27.750Z,26.55
2019-03-24T06:14:54.636Z,27.05
2019-03-24T06:17:21.579Z,26.15
2019-03-24T06:19:48.562Z,25.50
2019-03-24T06:22:15.341Z,24.72
2019-03-24T06:24:42.206Z,25.82
2019-03-24T06:27:09.085Z,23.60
2019-03-24T06:29:36.063Z,26.40
2019-03-24T06:32:02.949Z,25.97
2019-03-24T06:34:29.865Z,26.00
2019-03-24T06:36:56.974Z,30.17
2019-03-24T06:39:23.831Z,26.48
2019-03-24T06:41:50.853Z,25.27
2019-03-24T06:44:17.968Z,24.52
2019-03-24T06:46:44.799Z,24.70
2019-03-24T06:49:11.712Z,25.77
2019-03-24T06:51:38.717Z,26.45
2019-03-24T06:54:05.669Z,25.32
2019-03-24T06:56:32.517Z,25.95
2019-03-24T06:58:59.871Z,25.72
2019-03-24T07:01:26.758Z,26.05
2019-03-24T07:03:53.711Z,26.50
2019-03-24T07:06:20.657Z,26.80
2019-03-24T07:08:47.537Z,27.65
2019-03-24T07:11:14.247Z,27.22
2019-03-24T07:13:41.339Z,26.87
2019-03-24T07:16:08.226Z,27.58
2019-03-24T07:18:35.104Z,28.07
2019-03-24T07:21:01.984Z,27.20
2019-03-24T07:23:29.004Z,27.37
2019-03-24T07:25:55.823Z,27.25
2019-03-24T07:28:24.890Z,26.60
2019-03-24T07:30:51.835Z,26.90
2019-03-24T07:33:18.794Z,27.07
2019-03-24T07:35:45.763Z,26.45
2019-03-24T07:38:12.869Z,25.65
2019-03-24T07:40:40.027Z,27.25
2019-03-24T07:43:06.991Z,26.12
2019-03-24T07:45:33.987Z,26.33
2019-03-24T07:48:00.868Z,25.32
2019-03-24T07:50:28.862Z,26.25
2019-03-24T07:52:55.611Z,25.30
2019-03-24T07:55:22.420Z,24.60
2019-03-24T07:57:49.283Z,23.12
2019-03-24T08:00:30.890Z,25.02
2019-03-24T08:02:57.823Z,25.37
2019-03-24T08:05:24.763Z,25.02
2019-03-24T08:07:51.784Z,22.85
2019-03-24T08:10:18.728Z,24.30
2019-03-24T08:12:45.883Z,22.48
2019-03-24T08:15:12.798Z,23.22
2019-03-24T08:17:39.785Z,22.67
2019-03-24T08:20:06.761Z,21.50
2019-03-24T08:22:33.749Z,22.55
2019-03-24T08:25:00.612Z,22.58
2019-03-24T08:27:27.640Z,21.00
2019-03-24T08:29:55.436Z,21.37
2019-03-24T08:32:22.317Z,21.85
2019-03-24T08:34:49.144Z,21.80
2019-03-24T08:37:16.071Z,22.82
2019-03-24T08:39:43.030Z,20.72
2019-03-24T08:42:10.176Z,20.68
2019-03-24T08:44:37.059Z,20.95
2019-03-24T08:47:04.060Z,22.80
2019-03-24T08:49:31.035Z,20.17
2019-03-24T08:51:57.941Z,21.42
2019-03-24T08:54:24.870Z,20.35
2019-03-24T08:56:51.846Z,21.12
2019-03-24T08:59:18.748Z,20.88
2019-03-24T09:01:45.578Z,20.52
2019-03-24T09:04:12.651Z,21.07
2019-03-24T09:06:39.718Z,21.48
2019-03-24T09:09:07.058Z,20.65
2019-03-24T09:11:34.042Z,20.00
2019-03-24T09:14:00.936Z,18.80
2019-03-24T09:16:28.236Z,20.37
2019-03-24T09:18:55.064Z,19.75
2019-03-24T09:21:21.945Z,20.97
2019-03-24T09:23:49.188Z,21.02
2019-03-24T09:26:16.241Z,20.15
2019-03-24T09:28:43.212Z,19.27
2019-03-24T09:31:10.384Z,18.75
2019-03-24T09:33:37.296Z,18.62
2019-03-24T09:36:04.096Z,19.27
2019-03-24T09:38:31.408Z,18.55
2019-03-24T09:40:58.812Z,18.73
2019-03-24T09:43:25.650Z,22.55
2019-03-24T09:45:52.660Z,25.37
2019-03-24T09:48:19.694Z,19.95
2019-03-24T09:50:46.685Z,19.73
2019-03-24T09:53:13.556Z,19.92
2019-03-24T09:55:40.639Z,18.95
2019-03-24T09:58:07.535Z,18.52
2019-03-24T10:00:34.468Z,20.70
2019-03-24T10:03:01.526Z,22.42
2019-03-24T10:05:28.413Z,19.73
2019-03-24T10:07:55.240Z,29.18
2019-03-24T10:10:22.258Z,19.62
2019-03-24T10:12:49.060Z,20.02
2019-03-24T10:15:16.033Z,35.10
2019-03-24T10:17:43.964Z,24.15
2019-03-24T10:20:11.098Z,28.02
2019-03-24T10:22:38.718Z,19.82
2019-03-24T10:25:05.977Z,18.98
2019-03-24T10:27:32.936Z,19.75
2019-03-24T10:29:59.772Z,19.25
2019-03-24T10:32:26.699Z,20.92
2019-03-24T10:34:54.495Z,20.52
2019-03-24T10:37:21.336Z,19.73
2019-03-24T10:39:48.316Z,19.57
2019-03-24T10:42:15.164Z,20.52
2019-03-24T10:44:42.072Z,19.85
2019-03-24T10:47:08.876Z,20.32
2019-03-24T10:49:35.879Z,20.40
2019-03-24T10:52:02.918Z,18.70
2019-03-24T10:54:29.979Z,19.20
2019-03-24T10:56:56.810Z,18.35
2019-03-24T10:59:23.817Z,19.23
2019-03-24T11:01:50.677Z,19.92
2019-03-24T11:04:17.502Z,18.32
2019-03-24T11:06:44.382Z,18.05
2019-03-24T11:09:11.216Z,18.12
2019-03-24T11:11:38.176Z,18.00
2019-03-24T11:14:05.103Z,17.98
2019-03-24T11:16:31.944Z,17.20
2019-03-24T11:18:58.951Z,17.05
2019-03-24T11:21:25.804Z,17.52
2019-03-24T11:23:52.882Z,17.67
2019-03-24T11:26:19.762Z,16.82
2019-03-24T11:28:46.674Z,17.73
2019-03-24T11:31:13.494Z,17.57
2019-03-24T11:33:40.478Z,18.50
2019-03-24T11:36:07.743Z,18.90
2019-03-24T11:38:35.623Z,18.92
2019-03-24T11:41:02.627Z,17.20
2019-03-24T11:43:29.456Z,18.65
2019-03-24T11:45:56.513Z,19.15
2019-03-24T11:48:23.388Z,17.62
2019-03-24T11:50:50.445Z,19.20
2019-03-24T11:53:17.335Z,18.05
2019-03-24T11:55:44.278Z,18.42
2019-03-24T11:58:12.629Z,17.55
2019-03-24T12:00:39.749Z,18.80
2019-03-24T12:03:06.680Z,19.70
2019-03-24T12:05:33.603Z,17.98
2019-03-24T12:08:01.341Z,17.87
2019-03-24T12:10:28.388Z,17.17
2019-03-24T12:12:55.338Z,16.77
2019-03-24T12:15:22.219Z,23.25
2019-03-24T12:17:49.400Z,18.02
2019-03-24T12:20:16.341Z,18.85
2019-03-24T12:22:43.238Z,17.87
2019-03-24T12:25:10.615Z,17.30
2019-03-24T12:27:37.991Z,18.27
2019-03-24T12:30:08.234Z,19.42
2019-03-24T12:32:35.242Z,18.15
2019-03-24T12:35:05.019Z,18.92
2019-03-24T12:37:31.953Z,18.70
2019-03-24T12:39:58.895Z,19.30
2019-03-24T12:42:25.756Z,18.27
2019-03-24T12:44:52.634Z,19.32
2019-03-24T12:47:19.619Z,17.07
2019-03-24T12:49:46.556Z,17.45
2019-03-24T12:52:13.415Z,17.50
2019-03-24T12:54:40.473Z,16.70
2019-03-24T12:57:07.327Z,17.50
2019-03-24T12:59:34.262Z,18.35
2019-03-24T13:02:01.161Z,16.10
2019-03-24T13:04:27.960Z,16.42
2019-03-24T13:06:54.845Z,17.60
2019-03-24T13:09:21.755Z,15.98
2019-03-24T13:11:48.653Z,17.55
2019-03-24T13:14:15.468Z,16.67
2019-03-24T13:16:42.406Z,17.35
2019-03-24T13:19:09.414Z,17.50
2019-03-24T13:21:36.271Z,17.50
2019-03-24T13:24:03.139Z,17.65
2019-03-24T13:26:29.955Z,18.40
2019-03-24T13:28:57.165Z,18.45
2019-03-24T13:31:24.100Z,17.00
2019-03-24T13:33:51.151Z,18.40
2019-03-24T13:36:18.047Z,16.80
2019-03-24T13:38:44.975Z,16.70
2019-03-24T13:41:12.272Z,15.98
2019-03-24T13:43:38.970Z,17.00
2019-03-24T13:46:06.206Z,15.63
2019-03-24T13:48:33.061Z,15.65
2019-03-24T13:51:00.103Z,14.90
2019-03-24T13:53:27.032Z,14.93
2019-03-24T13:55:53.979Z,15.18
2019-03-24T13:58:21.053Z,15.72
2019-03-24T14:00:48.046Z,15.93
2019-03-24T14:03:14.978Z,17.10
2019-03-24T14:05:41.828Z,16.23
2019-03-24T14:08:08.669Z,15.53
2019-03-24T14:10:35.586Z,16.73
2019-03-24T14:13:02.490Z,16.42
2019-03-24T14:15:29.792Z,16.70
2019-03-24T14:17:56.721Z,15.85
2019-03-24T14:20:23.598Z,16.45
2019-03-24T14:22:50.635Z,16.23
2019-03-24T14:25:17.453Z,15.85
2019-03-24T14:27:44.397Z,14.83
2019-03-24T14:30:11.285Z,13.75
2019-03-24T14:32:38.186Z,14.15
2019-03-24T14:35:05.124Z,13.15
2019-03-24T14:37:32.221Z,14.13
2019-03-24T14:39:59.307Z,13.48
2019-03-24T14:42:26.116Z,14.78
2019-03-24T14:44:53.260Z,13.22
2019-03-24T14:47:20.209Z,12.63
2019-03-24T14:49:47.145Z,13.60
2019-03-24T14:52:13.883Z,12.53
2019-03-24T14:54:40.741Z,13.10
2019-03-24T14:57:07.537Z,15.28
2019-03-24T14:59:34.451Z,14.43
2019-03-24T15:02:01.354Z,14.83
2019-03-24T15:04:28.249Z,14.58
2019-03-24T15:06:55.154Z,15.65
2019-03-24T15:09:22.079Z,14.10
2019-03-24T15:11:49.133Z,14.70
2019-03-24T15:14:16.129Z,13.55
2019-03-24T15:16:42.967Z,13.83
2019-03-24T15:19:09.905Z,14.68
2019-03-24T15:21:36.852Z,14.05
2019-03-24T15:24:03.696Z,14.03
2019-03-24T15:26:31.477Z,14.13
2019-03-24T15:28:58.313Z,13.60
2019-03-24T15:31:25.221Z,13.20
2019-03-24T15:33:52.092Z,13.30
2019-03-24T15:36:18.919Z,13.10
2019-03-24T15:38:45.815Z,13.18
2019-03-24T15:41:12.763Z,14.18
2019-03-24T15:43:41.137Z,13.18
2019-03-24T15:46:08.322Z,12.75
2019-03-24T15:48:35.312Z,12.70
2019-03-24T15:51:02.135Z,12.65
2019-03-24T15:53:29.019Z,12.60
2019-03-24T15:55:56.062Z,12.65
2019-03-24T15:58:24.284Z,12.88
2019-03-24T16:00:51.169Z,14.13
2019-03-24T16:03:19.669Z,14.20
2019-03-24T16:05:46.771Z,15.50
2019-03-24T16:08:13.676Z,15.80
2019-03-24T16:10:40.566Z,14.40
2019-03-24T16:13:07.362Z,15.00
2019-03-24T16:15:34.251Z,14.20
2019-03-24T16:18:01.491Z,13.10
2019-03-24T16:20:28.339Z,13.50
2019-03-24T16:22:55.231Z,12.58
2019-03-24T16:25:22.097Z,13.00
2019-03-24T16:27:48.939Z,11.97
2019-03-24T16:30:15.960Z,14.15
2019-03-24T16:32:42.812Z,12.30
2019-03-24T16:35:09.695Z,12.82
2019-03-24T16:37:36.820Z,12.35
2019-03-24T16:40:05.384Z,12.80
2019-03-24T16:42:32.326Z,13.65
2019-03-24T16:44:59.178Z,13.28
2019-03-24T16:47:26.224Z,12.75
2019-03-24T16:49:53.679Z,13.88
2019-03-24T16:52:20.579Z,12.98
2019-03-24T16:54:47.424Z,13.83
2019-03-24T16:57:14.304Z,12.63
2019-03-24T16:59:41.158Z,13.65
2019-03-24T17:02:08.532Z,13.80
2019-03-24T17:04:35.512Z,14.33
2019-03-24T17:07:02.350Z,13.45
2019-03-24T17:09:29.558Z,13.35
2019-03-24T17:11:57.086Z,14.07
2019-03-24T17:14:23.902Z,12.40
2019-03-24T17:16:50.999Z,14.07
2019-03-24T17:19:17.868Z,15.15
2019-03-24T17:21:50.015Z,15.85
2019-03-24T17:24:13.524Z,16.27
2019-03-24T17:26:40.503Z,15.95
2019-03-24T17:29:07.840Z,14.23
2019-03-24T17:31:34.711Z,14.83
2019-03-24T17:34:01.726Z,15.10
2019-03-24T17:36:28.703Z,15.65
2019-03-24T17:38:55.577Z,16.00
2019-03-24T17:41:22.855Z,17.45
2019-03-24T17:43:49.822Z,18.00
2019-03-24T17:46:16.861Z,16.57
2019-03-24T17:48:43.706Z,17.48
2019-03-24T17:51:10.551Z,18.20
2019-03-24T17:53:37.312Z,18.55
2019-03-24T17:56:04.223Z,18.37
2019-03-24T17:58:31.138Z,18.65
2019-03-24T18:00:58.104Z,18.82
2019-03-24T18:03:24.942Z,19.50
2019-03-24T18:05:51.934Z,19.85
2019-03-24T18:08:18.761Z,19.90
2019-03-24T18:10:45.645Z,20.30
2019-03-24T18:13:12.572Z,20.80
2019-03-24T18:15:39.436Z,21.93
2019-03-24T18:18:06.434Z,22.05
2019-03-24T18:20:34.236Z,22.32
2019-03-24T18:23:01.156Z,23.60
2019-03-24T18:25:28.152Z,25.25
2019-03-24T18:27:55.011Z,32.55
2019-03-24T18:30:21.813Z,27.50
2019-03-24T18:32:48.705Z,24.12
2019-03-24T18:35:15.613Z,26.90
2019-03-24T18:37:42.532Z,25.37
2019-03-24T18:40:09.532Z,24.40
2019-03-24T18:42:36.971Z,26.62
2019-03-24T18:45:07.098Z,26.12
2019-03-24T18:47:33.974Z,26.10
2019-03-24T18:50:00.836Z,24.30
2019-03-24T18:52:27.718Z,24.70
2019-03-24T18:54:54.544Z,24.15
2019-03-24T18:57:21.319Z,25.00
2019-03-24T18:59:48.178Z,24.87
2019-03-24T19:02:15.061Z,25.70
2019-03-24T19:04:41.820Z,26.90
2019-03-24T19:07:08.604Z,27.73
2019-03-24T19:09:35.479Z,27.55
2019-03-24T19:12:02.599Z,28.25
2019-03-24T19:14:29.984Z,28.65
2019-03-24T19:16:56.964Z,30.90
2019-03-24T19:19:23.861Z,31.37
2019-03-24T19:21:51.284Z,31.57
2019-03-24T19:24:18.202Z,31.50
2019-03-24T19:26:44.992Z,33.00
2019-03-24T19:29:11.736Z,33.78
2019-03-24T19:31:39.795Z,32.73
2019-03-24T19:34:06.652Z,32.85
2019-03-24T19:36:33.536Z,34.00
2019-03-24T19:39:01.565Z,34.92
2019-03-24T19:41:30.258Z,34.00
2019-03-24T19:43:57.580Z,34.45
2019-03-24T19:46:24.470Z,35.40
2019-03-24T19:48:51.396Z,34.15
2019-03-24T19:51:20.817Z,34.40
2019-03-24T19:53:47.648Z,35.05
2019-03-24T19:56:14.681Z,35.38
2019-03-24T19:58:41.561Z,35.43
2019-03-24T20:01:08.413Z,33.60
2019-03-24T20:03:35.259Z,34.38
2019-03-24T20:06:02.528Z,35.20
2019-03-24T20:08:30.536Z,35.10
2019-03-24T20:10:57.408Z,36.80
2019-03-24T20:13:24.483Z,35.58
2019-03-24T20:15:51.320Z,35.45
2019-03-24T20:18:18.427Z,37.67
2019-03-24T20:20:45.301Z,37.20
2019-03-24T20:23:12.189Z,38.00
2019-03-24T20:25:39.102Z,39.58
2019-03-24T20:28:06.061Z,40.48
2019-03-24T20:30:32.809Z,41.65
2019-03-24T20:32:59.728Z,41.18
2019-03-24T20:35:26.548Z,41.40
2019-03-24T20:37:54.413Z,42.45
2019-03-24T20:40:21.322Z,45.33
2019-03-24T20:42:48.350Z,45.85
2019-03-24T20:45:15.284Z,45.67
2019-03-24T20:47:42.408Z,46.75
2019-03-24T20:50:10.172Z,47.80
2019-03-24T20:52:37.071Z,46.55
2019-03-24T20:55:05.345Z,45.90
2019-03-24T20:57:32.174Z,47.00
2019-03-24T20:59:59.144Z,45.92
2019-03-24T21:02:25.995Z,46.50
2019-03-24T21:04:53.187Z,48.35
2019-03-24T21:07:20.107Z,46.30
2019-03-24T21:09:47.170Z,45.28
2019-03-24T21:12:14.255Z,45.73
2019-03-24T21:14:41.222Z,46.55
2019-03-24T21:17:10.271Z,45.57
2019-03-24T21:19:37.197Z,45.75
2019-03-24T21:22:04.104Z,45.08
2019-03-24T21:24:30.945Z,45.67
2019-03-24T21:26:57.747Z,45.48
2019-03-24T21:29:24.809Z,43.20
2019-03-24T21:31:51.979Z,41.63
2019-03-24T21:34:28.185Z,43.25
2019-03-24T21:37:02.423Z,35.88
2019-03-24T21:39:33.336Z,33.00
2019-03-24T21:42:00.180Z,31.63
2019-03-24T21:44:30.632Z,27.37
2019-03-24T21:46:57.513Z,27.13
2019-03-24T21:49:24.639Z,22.32
2019-03-24T21:51:51.452Z,23.40
2019-03-24T21:54:18.256Z,20.65
2019-03-24T21:56:46.156Z,14.65
2019-03-24T21:59:13.018Z,13.32
2019-03-24T22:01:39.968Z,14.38
2019-03-24T22:04:06.866Z,13.30
2019-03-24T22:06:33.758Z,12.75
2019-03-24T22:09:08.894Z,11.05
2019-03-24T22:11:35.804Z,10.53
2019-03-24T22:14:02.940Z,8.63
2019-03-24T22:16:30.098Z,8.30
2019-03-24T22:18:57.148Z,7.72
2019-03-24T22:21:23.975Z,8.05
2019-03-24T22:23:52.460Z,7.22
2019-03-24T22:26:19.607Z,7.50
2019-03-24T22:28:46.494Z,7.53
2019-03-24T22:31:13.774Z,7.85
2019-03-24T22:33:40.669Z,7.80
2019-03-24T22:36:08.217Z,8.65
2019-03-24T22:38:35.129Z,7.70
2019-03-24T22:41:02.067Z,8.00
2019-03-24T22:43:29.815Z,8.08
2019-03-24T22:45:56.736Z,8.28
2019-03-24T22:48:23.599Z,8.08
2019-03-24T22:50:50.435Z,8.63
2019-03-24T22:53:17.356Z,7.53
2019-03-24T22:55:44.167Z,7.80
2019-03-24T22:58:11.150Z,8.30
2019-03-24T23:00:45.834Z,8.93
2019-03-24T23:03:12.786Z,7.97
2019-03-24T23:05:39.816Z,8.43
2019-03-24T23:08:06.755Z,7.95
2019-03-24T23:10:33.598Z,8.30
2019-03-24T23:13:00.457Z,8.13
2019-03-24T23:15:27.344Z,7.92
2019-03-24T23:17:54.302Z,8.50
2019-03-24T23:20:21.164Z,7.83
2019-03-24T23:22:48.238Z,8.53
2019-03-24T23:25:15.245Z,8.30
2019-03-24T23:27:42.124Z,9.15
2019-03-24T23:30:09.025Z,9.33
2019-03-24T23:32:36.040Z,8.33
2019-03-24T23:35:05.046Z,9.40
2019-03-24T23:37:31.995Z,8.95
2019-03-24T23:39:58.847Z,9.50
2019-03-24T23:42:25.659Z,10.60
2019-03-24T23:44:52.612Z,11.15
2019-03-24T23:47:19.584Z,9.83
2019-03-24T23:49:46.476Z,10.45
2019-03-24T23:52:13.501Z,9.63
2019-03-24T23:54:42.308Z,11.55
2019-03-24T23:57:09.122Z,9.13
2019-03-24T23:59:36.003Z,8.80
